createdAt,value
2022-10-08T00:01:04.045Z,17.45
2022-10-08T00:03:33.021Z,19.48
2022-10-08T00:06:02.109Z,19.30
2022-10-08T00:08:30.457Z,19.33
2022-10-08T00:11:06.511Z,18.13
2022-10-08T00:13:40.844Z,19.27
2022-10-08T00:16:12.704Z,22.13
2022-10-08T00:18:41.091Z,18.42
2022-10-08T00:21:16.932Z,16.85
2022-10-08T00:23:45.077Z,18.35
2022-10-08T00:26:11.988Z,18.70
2022-10-08T00:28:41.900Z,14.75
2022-10-08T00:31:23.887Z,20.70
2022-10-08T00:33:56.540Z,19.15
2022-10-08T00:36:29.540Z,17.20
2022-10-08T00:38:57.400Z,21.23
2022-10-08T00:41:27.115Z,15.07
2022-10-08T00:43:56.322Z,17.55
2022-10-08T00:46:37.289Z,19.35
2022-10-08T00:49:13.456Z,20.40
2022-10-08T00:51:46.117Z,19.27
2022-10-08T00:54:13.895Z,17.55
2022-10-08T00:56:41.402Z,17.80
2022-10-08T01:01:35.973Z,20.65
2022-10-08T01:04:05.736Z,17.23
2022-10-08T01:06:46.059Z,18.20
2022-10-08T01:09:19.359Z,16.65
2022-10-08T01:12:03.397Z,21.55
2022-10-08T01:14:45.032Z,17.58
2022-10-08T01:17:47.903Z,14.60
2022-10-08T01:20:42.014Z,19.23
2022-10-08T01:23:41.511Z,18.27
2022-10-08T01:26:42.827Z,19.70
2022-10-08T01:29:18.416Z,18.52
2022-10-08T01:31:53.021Z,17.90
2022-10-08T01:34:37.025Z,18.38
2022-10-08T01:37:06.657Z,18.98
2022-10-08T01:39:35.658Z,15.93
2022-10-08T01:42:05.554Z,15.07
2022-10-08T01:44:34.515Z,19.77
2022-10-08T01:47:05.311Z,16.23
2022-10-08T01:49:38.723Z,18.00
2022-10-08T01:52:11.477Z,18.10
2022-10-08T01:54:43.128Z,20.77
2022-10-08T01:57:10.907Z,18.88
2022-10-08T01:59:42.905Z,15.50
2022-10-08T02:02:22.616Z,17.10
2022-10-08T02:04:51.654Z,19.60
2022-10-08T02:07:22.279Z,13.43
2022-10-08T02:10:02.476Z,16.98
2022-10-08T02:12:29.045Z,15.98
2022-10-08T02:14:57.372Z,16.10
2022-10-08T02:17:39.073Z,20.83
2022-10-08T02:20:41.198Z,16.63
2022-10-08T02:23:23.801Z,19.17
2022-10-08T02:26:00.351Z,16.63
2022-10-08T02:28:43.422Z,16.40
2022-10-08T02:31:19.235Z,16.67
2022-10-08T02:33:48.155Z,18.10
2022-10-08T02:36:19.948Z,17.10
2022-10-08T02:38:55.090Z,17.17
2022-10-08T02:41:26.421Z,18.65
2022-10-08T02:43:54.274Z,16.23
2022-10-08T02:46:24.197Z,22.25
2022-10-08T02:48:57.666Z,17.30
2022-10-08T02:51:27.915Z,21.85
2022-10-08T02:53:55.234Z,19.63
2022-10-08T02:56:33.795Z,19.08
2022-10-08T02:59:00.306Z,18.65
2022-10-08T03:02:00.511Z,18.77
2022-10-08T03:04:43.291Z,20.52
2022-10-08T03:07:12.370Z,23.58
2022-10-08T03:09:43.283Z,20.05
2022-10-08T03:12:10.257Z,20.48
2022-10-08T03:14:40.922Z,22.50
2022-10-08T03:17:09.983Z,24.75
2022-10-08T03:19:36.423Z,17.85
2022-10-08T03:22:03.412Z,19.98
2022-10-08T03:24:29.965Z,17.42
2022-10-08T03:26:56.421Z,19.37
2022-10-08T03:29:22.836Z,21.20
2022-10-08T03:31:49.539Z,19.23
2022-10-08T03:34:16.500Z,23.95
2022-10-08T03:36:42.974Z,23.33
2022-10-08T03:39:11.571Z,16.15
2022-10-08T03:41:38.169Z,20.42
2022-10-08T03:44:08.229Z,24.43
2022-10-08T03:46:35.089Z,16.23
2022-10-08T03:49:01.529Z,19.38
2022-10-08T03:51:27.954Z,15.95
2022-10-08T03:53:54.414Z,20.38
2022-10-08T03:56:25.421Z,19.80
2022-10-08T03:59:00.112Z,20.63
2022-10-08T04:01:28.575Z,17.20
2022-10-08T04:03:55.076Z,26.25
2022-10-08T04:06:21.824Z,24.10
2022-10-08T04:08:48.255Z,21.13
2022-10-08T04:11:16.682Z,17.40
2022-10-08T04:13:43.713Z,17.40
2022-10-08T04:16:18.409Z,20.42
2022-10-08T04:18:46.572Z,15.95
2022-10-08T04:21:16.030Z,19.55
2022-10-08T04:23:43.730Z,17.83
2022-10-08T04:26:14.854Z,17.33
2022-10-08T04:28:48.505Z,18.10
2022-10-08T04:31:21.683Z,18.77
2022-10-08T04:33:48.520Z,16.80
2022-10-08T04:36:17.785Z,17.83
2022-10-08T04:38:45.074Z,18.45
2022-10-08T04:41:14.621Z,18.20
2022-10-08T04:43:42.358Z,19.40
2022-10-08T04:46:11.004Z,16.13
2022-10-08T04:48:39.316Z,17.50
2022-10-08T04:51:10.855Z,19.25
2022-10-08T04:53:37.976Z,17.33
2022-10-08T04:56:11.107Z,19.80
2022-10-08T04:58:37.491Z,18.65
2022-10-08T05:01:08.740Z,20.83
2022-10-08T05:03:39.154Z,18.75
2022-10-08T05:06:06.454Z,16.98
2022-10-08T05:08:33.575Z,18.38
2022-10-08T05:11:00.258Z,18.25
2022-10-08T05:13:26.860Z,15.98
2022-10-08T05:15:53.372Z,19.30
2022-10-08T05:18:19.947Z,19.70
2022-10-08T05:20:46.400Z,23.80
2022-10-08T05:23:12.782Z,16.70
2022-10-08T05:25:39.212Z,17.52
2022-10-08T05:28:05.609Z,17.65
2022-10-08T05:30:32.013Z,17.10
2022-10-08T05:32:58.410Z,16.40
2022-10-08T05:35:24.864Z,16.02
2022-10-08T05:37:51.252Z,21.35
2022-10-08T05:40:17.626Z,17.77
2022-10-08T05:42:44.157Z,16.00
2022-10-08T05:45:10.737Z,16.58
2022-10-08T05:47:37.095Z,13.25
2022-10-08T05:50:03.690Z,19.02
2022-10-08T05:52:30.153Z,15.63
2022-10-08T05:54:56.506Z,13.77
2022-10-08T05:57:22.923Z,17.58
2022-10-08T05:59:49.268Z,18.52
2022-10-08T06:02:15.674Z,14.88
2022-10-08T06:04:42.209Z,13.27
2022-10-08T06:07:08.632Z,13.67
2022-10-08T06:09:35.042Z,14.73
2022-10-08T06:12:01.591Z,14.75
2022-10-08T06:14:28.128Z,12.83
2022-10-08T06:16:54.859Z,13.13
2022-10-08T06:19:21.388Z,14.13
2022-10-08T06:21:47.925Z,11.00
2022-10-08T06:24:14.540Z,16.13
2022-10-08T06:26:42.902Z,13.77
2022-10-08T06:29:14.261Z,13.07
2022-10-08T06:31:41.045Z,14.95
2022-10-08T06:34:07.994Z,14.05
2022-10-08T06:36:35.068Z,15.18
2022-10-08T06:39:05.168Z,12.50
2022-10-08T06:41:34.759Z,10.85
2022-10-08T06:44:07.338Z,11.63
2022-10-08T06:46:34.360Z,11.40
2022-10-08T06:49:01.697Z,9.73
2022-10-08T06:51:28.523Z,11.05
2022-10-08T06:53:58.660Z,10.82
2022-10-08T06:56:26.991Z,10.73
2022-10-08T06:58:53.914Z,13.70
2022-10-08T07:01:30.332Z,11.68
2022-10-08T07:04:00.707Z,8.45
2022-10-08T07:06:28.096Z,8.20
2022-10-08T07:08:59.303Z,8.30
2022-10-08T07:11:26.709Z,8.80
2022-10-08T07:16:26.329Z,9.80
2022-10-08T07:18:54.309Z,5.50
2022-10-08T07:21:21.992Z,6.55
2022-10-08T07:23:49.113Z,10.38
2022-10-08T07:26:18.231Z,7.20
2022-10-08T07:28:56.991Z,5.90
2022-10-08T07:31:29.791Z,9.40
2022-10-08T07:33:57.378Z,6.68
2022-10-08T07:38:55.209Z,5.95
2022-10-08T07:41:21.971Z,6.95
2022-10-08T07:43:53.619Z,7.90
2022-10-08T07:46:20.985Z,7.13
2022-10-08T07:48:47.558Z,5.20
2022-10-08T07:51:19.472Z,6.87
2022-10-08T07:53:46.566Z,7.32
2022-10-08T07:56:15.120Z,6.47
2022-10-08T07:58:42.457Z,5.50
2022-10-08T08:01:12.800Z,6.50
2022-10-08T08:03:39.429Z,4.65
2022-10-08T08:06:12.241Z,4.23
2022-10-08T08:08:40.345Z,5.80
2022-10-08T08:11:09.454Z,6.25
2022-10-08T08:13:37.791Z,4.15
2022-10-08T08:16:06.994Z,6.22
2022-10-08T08:18:36.556Z,4.28
2022-10-08T08:21:06.491Z,5.45
2022-10-08T08:23:35.323Z,7.43
2022-10-08T08:26:03.169Z,4.20
2022-10-08T08:28:30.352Z,4.53
2022-10-08T08:31:10.758Z,6.57
2022-10-08T08:33:37.297Z,5.45
2022-10-08T08:36:04.773Z,4.93
2022-10-08T08:38:33.933Z,5.78
2022-10-08T08:41:37.418Z,5.30
2022-10-08T08:44:11.315Z,5.25
2022-10-08T08:46:41.892Z,5.32
2022-10-08T08:49:19.691Z,7.28
2022-10-08T08:51:46.356Z,5.43
2022-10-08T08:54:12.909Z,3.80
2022-10-08T08:56:39.611Z,4.50
2022-10-08T08:59:23.673Z,4.80
2022-10-08T09:01:53.315Z,6.47
2022-10-08T09:04:41.656Z,8.73
2022-10-08T09:07:19.402Z,3.95
2022-10-08T09:09:49.313Z,7.70
2022-10-08T09:12:27.299Z,4.82
2022-10-08T09:14:56.687Z,5.47
2022-10-08T09:17:53.027Z,5.00
2022-10-08T09:20:22.662Z,4.75
2022-10-08T09:22:51.685Z,5.13
2022-10-08T09:25:22.482Z,8.10
2022-10-08T09:27:53.444Z,4.85
2022-10-08T09:30:41.567Z,7.80
2022-10-08T09:33:16.207Z,5.55
2022-10-08T09:35:51.460Z,8.60
2022-10-08T09:38:25.411Z,4.88
2022-10-08T09:41:02.173Z,4.60
2022-10-08T09:43:29.729Z,5.25
2022-10-08T09:45:56.505Z,5.45
2022-10-08T09:48:25.000Z,7.72
2022-10-08T09:50:53.708Z,6.25
2022-10-08T09:53:22.799Z,6.38
2022-10-08T09:55:59.156Z,3.97
2022-10-08T09:58:26.738Z,6.33
2022-10-08T10:00:59.601Z,7.53
2022-10-08T10:03:27.390Z,6.82
2022-10-08T10:05:55.233Z,4.97
2022-10-08T10:08:59.443Z,5.72
2022-10-08T10:11:31.548Z,6.43
2022-10-08T10:14:01.354Z,5.88
2022-10-08T10:16:34.918Z,3.92
2022-10-08T10:19:18.310Z,5.35
2022-10-08T10:21:53.684Z,2.53
2022-10-08T10:24:28.141Z,4.78
2022-10-08T10:26:59.297Z,5.82
2022-10-08T10:29:31.547Z,4.43
2022-10-08T10:32:14.463Z,4.15
2022-10-08T10:34:45.263Z,4.38
2022-10-08T10:37:20.866Z,5.05
2022-10-08T10:40:13.754Z,5.72
2022-10-08T10:42:50.567Z,3.22
2022-10-08T10:45:21.966Z,3.08
2022-10-08T10:47:50.964Z,3.92
2022-10-08T10:50:28.198Z,4.35
2022-10-08T10:55:40.051Z,4.63
2022-10-08T10:58:31.399Z,3.55
2022-10-08T11:01:08.107Z,4.88
2022-10-08T11:03:44.883Z,3.90
2022-10-08T11:06:26.702Z,5.05
2022-10-08T11:09:40.685Z,7.53
2022-10-08T11:12:24.554Z,7.00
2022-10-08T11:15:12.771Z,9.07
2022-10-08T11:17:51.478Z,3.13
2022-10-08T11:20:37.948Z,2.92
2022-10-08T11:23:20.248Z,1.83
2022-10-08T11:26:15.319Z,3.25
2022-10-08T11:28:58.357Z,3.97
2022-10-08T11:31:33.197Z,2.80
2022-10-08T11:34:00.396Z,2.17
2022-10-08T11:36:35.520Z,3.25
2022-10-08T11:39:21.033Z,2.65
2022-10-08T11:42:02.362Z,3.70
2022-10-08T11:44:30.216Z,1.85
2022-10-08T11:47:54.698Z,2.47
2022-10-08T11:50:25.515Z,4.63
2022-10-08T11:52:54.661Z,3.10
2022-10-08T11:55:28.074Z,2.50
2022-10-08T11:58:08.050Z,2.22
2022-10-08T12:00:48.012Z,2.58
2022-10-08T12:03:33.418Z,1.25
2022-10-08T12:06:26.614Z,2.13
2022-10-08T12:08:56.164Z,2.08
2022-10-08T12:11:31.392Z,2.53
2022-10-08T12:14:24.271Z,2.53
2022-10-08T12:16:56.915Z,2.63
2022-10-08T12:19:32.662Z,1.83
2022-10-08T12:22:25.040Z,3.75
2022-10-08T12:24:53.155Z,1.70
2022-10-08T12:27:31.476Z,3.90
2022-10-08T12:30:07.293Z,3.83
2022-10-08T12:32:53.516Z,1.88
2022-10-08T12:35:28.356Z,1.95
2022-10-08T12:38:16.089Z,2.55
2022-10-08T12:40:50.335Z,3.83
2022-10-08T12:43:36.141Z,2.63
2022-10-08T12:46:11.596Z,2.30
2022-10-08T12:48:46.332Z,2.78
2022-10-08T12:51:48.178Z,1.95
2022-10-08T12:54:19.557Z,2.38
2022-10-08T12:56:46.325Z,2.75
2022-10-08T12:59:12.800Z,2.70
2022-10-08T13:01:42.559Z,2.00
2022-10-08T13:04:15.883Z,1.95
2022-10-08T13:06:42.313Z,3.03
2022-10-08T13:09:27.740Z,1.33
2022-10-08T13:11:59.432Z,1.80
2022-10-08T13:14:30.216Z,2.08
2022-10-08T13:19:28.283Z,1.67
2022-10-08T13:21:57.143Z,2.65
2022-10-08T13:24:25.366Z,2.40
2022-10-08T13:26:53.857Z,2.28
2022-10-08T13:29:32.612Z,2.53
2022-10-08T13:32:00.344Z,2.08
2022-10-08T13:34:41.366Z,2.55
2022-10-08T13:37:13.525Z,5.47
2022-10-08T13:39:59.922Z,3.22
2022-10-08T13:42:33.544Z,2.03
2022-10-08T13:45:01.701Z,4.22
2022-10-08T13:47:29.234Z,1.80
2022-10-08T13:50:01.691Z,1.73
2022-10-08T13:52:30.889Z,2.35
2022-10-08T13:55:00.821Z,4.40
2022-10-08T13:57:27.478Z,2.50
2022-10-08T13:59:53.855Z,1.75
2022-10-08T14:02:20.347Z,3.45
2022-10-08T14:04:47.046Z,2.90
2022-10-08T14:07:25.932Z,3.20
2022-10-08T14:09:54.421Z,3.85
2022-10-08T14:12:26.322Z,3.60
2022-10-08T14:14:53.475Z,2.35
2022-10-08T14:17:21.374Z,1.55
2022-10-08T14:19:49.239Z,5.10
2022-10-08T14:22:16.418Z,2.83
2022-10-08T14:24:43.907Z,3.83
2022-10-08T14:27:10.534Z,3.05
2022-10-08T14:29:37.140Z,2.78
2022-10-08T14:32:04.953Z,2.38
2022-10-08T14:34:31.655Z,5.07
2022-10-08T14:36:58.198Z,2.00
2022-10-08T14:39:26.697Z,2.93
2022-10-08T14:41:53.327Z,2.25
2022-10-08T14:44:22.361Z,3.22
2022-10-08T14:46:51.888Z,2.50
2022-10-08T14:49:19.379Z,3.50
2022-10-08T14:56:41.228Z,2.77
2022-10-08T14:59:07.616Z,2.92
2022-10-08T15:01:36.672Z,3.60
2022-10-08T15:04:06.723Z,1.95
2022-10-08T15:06:33.802Z,3.03
2022-10-08T15:09:00.240Z,5.57
2022-10-08T15:11:26.720Z,5.10
2022-10-08T15:13:54.015Z,2.15
2022-10-08T15:16:20.529Z,4.13
2022-10-08T15:18:47.372Z,2.47
2022-10-08T15:21:14.212Z,2.75
2022-10-08T15:23:40.723Z,2.40
2022-10-08T15:26:10.141Z,2.45
2022-10-08T15:28:37.886Z,6.53
2022-10-08T15:31:11.847Z,3.90
2022-10-08T15:33:39.605Z,5.55
2022-10-08T15:36:37.113Z,2.40
2022-10-08T15:39:08.654Z,4.22
2022-10-08T15:41:37.526Z,2.40
2022-10-08T15:44:15.972Z,4.20
2022-10-08T15:46:42.481Z,3.42
2022-10-08T15:49:08.875Z,3.20
2022-10-08T15:51:35.563Z,1.83
2022-10-08T15:54:02.611Z,5.30
2022-10-08T15:56:29.444Z,5.60
2022-10-08T15:58:58.365Z,2.65
2022-10-08T16:01:25.707Z,4.53
2022-10-08T16:03:54.384Z,5.63
2022-10-08T16:06:24.247Z,2.90
2022-10-08T16:08:51.199Z,2.85
2022-10-08T16:11:19.031Z,5.43
2022-10-08T16:13:51.476Z,4.07
2022-10-08T16:16:18.703Z,5.03
2022-10-08T16:18:47.015Z,3.42
2022-10-08T16:21:13.751Z,2.50
2022-10-08T16:23:40.351Z,4.50
2022-10-08T16:26:10.555Z,3.37
2022-10-08T16:28:40.163Z,7.63
2022-10-08T16:31:08.504Z,5.05
2022-10-08T16:33:35.070Z,3.28
2022-10-08T16:36:03.396Z,7.95
2022-10-08T16:38:30.526Z,8.90
2022-10-08T16:41:13.097Z,4.82
2022-10-08T16:43:39.850Z,6.25
2022-10-08T16:46:13.827Z,2.97
2022-10-08T16:48:40.765Z,2.60
2022-10-08T16:51:07.978Z,4.30
2022-10-08T16:53:34.405Z,4.70
2022-10-08T16:58:52.650Z,5.43
2022-10-08T17:01:19.510Z,3.17
2022-10-08T17:03:46.203Z,4.43
2022-10-08T17:06:12.830Z,3.85
2022-10-08T17:08:39.412Z,3.97
2022-10-08T17:11:07.941Z,3.37
2022-10-08T17:13:39.789Z,4.25
2022-10-08T17:16:09.666Z,5.93
2022-10-08T17:18:36.156Z,2.78
2022-10-08T17:21:03.949Z,2.60
2022-10-08T17:23:34.226Z,4.70
2022-10-08T17:26:07.380Z,6.43
2022-10-08T17:28:37.616Z,6.38
2022-10-08T17:31:06.172Z,4.05
2022-10-08T17:33:35.921Z,5.45
2022-10-08T17:36:09.119Z,4.57
2022-10-08T17:38:36.846Z,5.30
2022-10-08T17:41:25.315Z,8.98
2022-10-08T17:43:53.088Z,8.45
2022-10-08T17:46:28.514Z,10.20
2022-10-08T17:48:55.652Z,9.25
2022-10-08T17:51:25.052Z,5.18
2022-10-08T17:53:54.097Z,3.67
2022-10-08T17:56:21.346Z,6.15
2022-10-08T17:58:48.872Z,6.10
2022-10-08T18:03:45.250Z,7.00
2022-10-08T18:06:12.324Z,4.38
2022-10-08T18:08:39.169Z,7.03
2022-10-08T18:11:09.330Z,4.22
2022-10-08T18:13:36.438Z,4.28
2022-10-08T18:16:07.327Z,5.38
2022-10-08T18:18:34.677Z,5.60
2022-10-08T18:21:02.299Z,4.65
2022-10-08T18:23:30.634Z,5.25
2022-10-08T18:26:15.771Z,3.88
2022-10-08T18:28:42.434Z,2.67
2022-10-08T18:31:11.198Z,4.28
2022-10-08T18:33:39.591Z,3.35
2022-10-08T18:36:10.396Z,2.38
2022-10-08T18:38:37.492Z,4.20
2022-10-08T18:41:31.406Z,6.63
2022-10-08T18:44:04.452Z,6.95
2022-10-08T18:46:31.260Z,7.22
2022-10-08T18:48:57.901Z,5.13
2022-10-08T18:51:26.939Z,4.97
2022-10-08T18:53:55.147Z,4.10
2022-10-08T18:56:28.563Z,6.68
2022-10-08T18:59:01.834Z,4.78
2022-10-08T19:01:31.876Z,4.20
2022-10-08T19:04:00.816Z,4.57
2022-10-08T19:06:31.341Z,6.78
2022-10-08T19:08:59.282Z,8.27
2022-10-08T19:11:37.707Z,3.60
2022-10-08T19:14:10.242Z,5.38
2022-10-08T19:16:38.359Z,4.80
2022-10-08T19:19:08.083Z,3.00
2022-10-08T19:21:35.806Z,2.83
2022-10-08T19:24:02.432Z,2.95
2022-10-08T19:26:32.788Z,4.23
2022-10-08T19:28:59.886Z,7.03
2022-10-08T19:31:34.550Z,4.43
2022-10-08T19:34:07.247Z,4.18
2022-10-08T19:36:36.035Z,4.28
2022-10-08T19:39:15.546Z,4.65
2022-10-08T19:41:43.165Z,5.72
2022-10-08T19:44:17.338Z,5.20
2022-10-08T19:46:44.544Z,4.15
2022-10-08T19:49:11.595Z,4.88
2022-10-08T19:51:39.204Z,4.40
2022-10-08T19:56:32.473Z,5.25
2022-10-08T19:58:59.426Z,5.60
2022-10-08T20:01:29.035Z,8.02
2022-10-08T20:03:57.376Z,6.07
2022-10-08T20:06:26.464Z,7.72
2022-10-08T20:08:54.891Z,7.40
2022-10-08T20:11:22.439Z,8.98
2022-10-08T20:16:19.330Z,5.93
2022-10-08T20:19:07.487Z,9.18
2022-10-08T20:21:37.352Z,10.02
2022-10-08T20:24:05.010Z,8.00
2022-10-08T20:26:34.022Z,6.15
2022-10-08T20:29:06.162Z,8.27
2022-10-08T20:31:44.408Z,8.27
2022-10-08T20:34:17.922Z,7.82
2022-10-08T20:36:48.937Z,9.00
2022-10-08T20:39:17.810Z,7.32
2022-10-08T20:41:45.731Z,9.02
2022-10-08T20:44:13.435Z,9.52
2022-10-08T20:46:40.256Z,11.07
2022-10-08T20:49:18.579Z,10.20
2022-10-08T20:51:54.069Z,7.57
2022-10-08T20:54:25.871Z,7.75
2022-10-08T20:57:00.899Z,7.45
2022-10-08T20:59:27.730Z,11.90
2022-10-08T21:01:55.978Z,17.17
2022-10-08T21:04:27.598Z,14.75
2022-10-08T21:06:54.240Z,14.60
2022-10-08T21:09:25.157Z,11.70
2022-10-08T21:11:53.661Z,7.32
2022-10-08T21:14:25.483Z,6.60
2022-10-08T21:16:57.566Z,8.45
2022-10-08T21:19:28.464Z,5.13
2022-10-08T21:22:03.027Z,5.85
2022-10-08T21:24:33.471Z,5.22
2022-10-08T21:27:05.486Z,6.40
2022-10-08T21:29:40.464Z,7.97
2022-10-08T21:32:07.051Z,3.72
2022-10-08T21:34:49.765Z,3.57
2022-10-08T21:37:34.958Z,4.70
2022-10-08T21:40:01.463Z,7.53
2022-10-08T21:42:29.895Z,12.10
2022-10-08T21:44:56.358Z,10.93
2022-10-08T21:47:23.623Z,15.07
2022-10-08T21:52:16.812Z,17.02
2022-10-08T21:54:44.189Z,17.63
2022-10-08T21:57:14.253Z,19.08
2022-10-08T21:59:46.652Z,11.25
2022-10-08T22:02:13.735Z,13.52
2022-10-08T22:04:40.292Z,10.33
2022-10-08T22:07:06.759Z,10.23
2022-10-08T22:09:35.345Z,11.75
2022-10-08T22:12:02.379Z,7.35
2022-10-08T22:14:29.345Z,6.60
2022-10-08T22:16:55.971Z,7.13
2022-10-08T22:19:22.656Z,6.70
2022-10-08T22:21:50.794Z,7.27
2022-10-08T22:24:17.341Z,5.60
2022-10-08T22:26:46.981Z,6.07
2022-10-08T22:29:14.038Z,3.70
2022-10-08T22:31:40.916Z,3.95
2022-10-08T22:34:09.156Z,4.45
2022-10-08T22:36:40.805Z,4.95
2022-10-08T22:39:11.822Z,4.82
2022-10-08T22:41:38.900Z,6.47
2022-10-08T22:44:05.454Z,3.72
2022-10-08T22:46:36.407Z,3.63
2022-10-08T22:49:06.184Z,3.63
2022-10-08T22:51:32.965Z,4.35
2022-10-08T22:54:00.702Z,4.30
2022-10-08T22:56:29.951Z,5.15
2022-10-08T22:58:58.261Z,3.97
2022-10-08T23:01:26.436Z,3.25
2022-10-08T23:03:53.814Z,6.47
2022-10-08T23:06:21.749Z,3.17
2022-10-08T23:08:54.006Z,3.53
2022-10-08T23:11:20.685Z,5.07
2022-10-08T23:13:51.859Z,4.17
2022-10-08T23:16:18.716Z,4.45
2022-10-08T23:18:51.336Z,4.07
2022-10-08T23:21:19.339Z,2.60
2022-10-08T23:23:54.519Z,5.55
2022-10-08T23:26:22.505Z,5.85
2022-10-08T23:28:57.685Z,3.50
2022-10-08T23:31:36.225Z,3.47
2022-10-08T23:34:04.657Z,4.55
2022-10-08T23:36:42.902Z,4.57
2022-10-08T23:39:17.391Z,3.58
2022-10-08T23:41:45.285Z,4.68
2022-10-08T23:44:12.084Z,3.67
2022-10-08T23:46:38.939Z,3.13
2022-10-08T23:49:05.705Z,4.03
2022-10-08T23:51:32.404Z,5.13
2022-10-08T23:53:59.108Z,4.47
2022-10-08T23:56:25.576Z,2.90
2022-10-08T23:58:51.989Z,3.03
